sensor_id;sensor_type;location;lat;lon;timestamp;temperature;humidity
78297;DHT22;67555;47.660;19.622;2023-02-28T00:00:15;-0.10;58.60
78297;DHT22;67555;47.660;19.622;2023-02-28T00:02:42;0.00;58.50
78297;DHT22;67555;47.660;19.622;2023-02-28T00:05:10;0.00;58.30
78297;DHT22;67555;47.660;19.622;2023-02-28T00:07:37;0.10;58.10
78297;DHT22;67555;47.660;19.622;2023-02-28T00:10:04;0.10;58.20
78297;DHT22;67555;47.660;19.622;2023-02-28T00:12:32;0.00;58.40
78297;DHT22;67555;47.660;19.622;2023-02-28T00:14:57;-0.10;58.90
78297;DHT22;67555;47.660;19.622;2023-02-28T00:17:23;-0.10;59.30
78297;DHT22;67555;47.660;19.622;2023-02-28T00:19:50;-0.20;59.60
78297;DHT22;67555;47.660;19.622;2023-02-28T00:22:17;-0.10;59.70
78297;DHT22;67555;47.660;19.622;2023-02-28T00:24:43;-0.10;59.70
78297;DHT22;67555;47.660;19.622;2023-02-28T00:27:09;-0.10;59.70
78297;DHT22;67555;47.660;19.622;2023-02-28T00:29:35;-0.10;59.70
78297;DHT22;67555;47.660;19.622;2023-02-28T00:32:01;0.00;59.70
78297;DHT22;67555;47.660;19.622;2023-02-28T00:34:27;0.00;59.70
78297;DHT22;67555;47.660;19.622;2023-02-28T00:36:53;0.00;59.70
78297;DHT22;67555;47.660;19.622;2023-02-28T00:39:19;0.10;59.50
78297;DHT22;67555;47.660;19.622;2023-02-28T00:41:44;0.30;59.30
78297;DHT22;67555;47.660;19.622;2023-02-28T00:44:10;0.50;59.00
78297;DHT22;67555;47.660;19.622;2023-02-28T00:46:36;0.60;59.00
78297;DHT22;67555;47.660;19.622;2023-02-28T00:49:01;0.60;58.80
78297;DHT22;67555;47.660;19.622;2023-02-28T00:51:27;0.80;58.60
78297;DHT22;67555;47.660;19.622;2023-02-28T00:53:53;0.90;58.30
78297;DHT22;67555;47.660;19.622;2023-02-28T00:56:19;1.00;58.10
78297;DHT22;67555;47.660;19.622;2023-02-28T00:58:45;1.00;57.90
78297;DHT22;67555;47.660;19.622;2023-02-28T01:01:11;1.00;57.80
78297;DHT22;67555;47.660;19.622;2023-02-28T01:03:36;1.10;57.70
78297;DHT22;67555;47.660;19.622;2023-02-28T01:06:02;1.10;57.60
78297;DHT22;67555;47.660;19.622;2023-02-28T01:08:28;1.10;57.50
78297;DHT22;67555;47.660;19.622;2023-02-28T01:10:54;1.10;57.60
78297;DHT22;67555;47.660;19.622;2023-02-28T01:13:20;1.00;57.90
78297;DHT22;67555;47.660;19.622;2023-02-28T01:15:50;0.90;58.20
78297;DHT22;67555;47.660;19.622;2023-02-28T01:18:17;0.80;58.40
78297;DHT22;67555;47.660;19.622;2023-02-28T01:20:43;0.60;58.90
78297;DHT22;67555;47.660;19.622;2023-02-28T01:23:09;0.60;59.30
78297;DHT22;67555;47.660;19.622;2023-02-28T01:25:35;0.80;59.20
78297;DHT22;67555;47.660;19.622;2023-02-28T01:28:01;0.90;59.00
78297;DHT22;67555;47.660;19.622;2023-02-28T01:30:27;1.00;58.70
78297;DHT22;67555;47.660;19.622;2023-02-28T01:32:53;1.00;58.30
78297;DHT22;67555;47.660;19.622;2023-02-28T01:35:19;0.90;58.40
78297;DHT22;67555;47.660;19.622;2023-02-28T01:37:45;0.80;58.70
78297;DHT22;67555;47.660;19.622;2023-02-28T01:40:11;0.70;58.70
78297;DHT22;67555;47.660;19.622;2023-02-28T01:42:38;0.60;58.90
78297;DHT22;67555;47.660;19.622;2023-02-28T01:45:25;0.60;59.00
78297;DHT22;67555;47.660;19.622;2023-02-28T01:47:52;0.60;59.20
78297;DHT22;67555;47.660;19.622;2023-02-28T01:50:22;0.60;59.40
78297;DHT22;67555;47.660;19.622;2023-02-28T01:52:48;0.60;59.50
78297;DHT22;67555;47.660;19.622;2023-02-28T01:55:17;0.70;59.60
78297;DHT22;67555;47.660;19.622;2023-02-28T01:57:48;0.70;59.60
78297;DHT22;67555;47.660;19.622;2023-02-28T02:00:17;0.70;59.60
78297;DHT22;67555;47.660;19.622;2023-02-28T02:02:47;0.80;59.50
78297;DHT22;67555;47.660;19.622;2023-02-28T02:07:45;1.00;59.50
78297;DHT22;67555;47.660;19.622;2023-02-28T02:10:21;1.00;59.20
78297;DHT22;67555;47.660;19.622;2023-02-28T02:15:34;1.00;59.20
78297;DHT22;67555;47.660;19.622;2023-02-28T02:32:41;0.80;59.00
78297;DHT22;67555;47.660;19.622;2023-02-28T02:37:59;0.80;59.20
78297;DHT22;67555;47.660;19.622;2023-02-28T02:40:35;0.80;59.10
78297;DHT22;67555;47.660;19.622;2023-02-28T02:43:11;0.70;59.30
78297;DHT22;67555;47.660;19.622;2023-02-28T02:45:44;0.60;59.40
78297;DHT22;67555;47.660;19.622;2023-02-28T02:48:16;0.50;59.70
78297;DHT22;67555;47.660;19.622;2023-02-28T02:50:54;0.50;59.80
78297;DHT22;67555;47.660;19.622;2023-02-28T02:53:44;0.50;59.80
78297;DHT22;67555;47.660;19.622;2023-02-28T02:56:09;0.50;60.00
78297;DHT22;67555;47.660;19.622;2023-02-28T02:58:40;0.50;60.00
78297;DHT22;67555;47.660;19.622;2023-02-28T03:01:09;0.40;60.00
78297;DHT22;67555;47.660;19.622;2023-02-28T03:03:36;0.40;60.10
78297;DHT22;67555;47.660;19.622;2023-02-28T03:06:02;0.40;60.10
78297;DHT22;67555;47.660;19.622;2023-02-28T03:08:33;0.40;60.30
78297;DHT22;67555;47.660;19.622;2023-02-28T03:11:04;0.40;60.30
78297;DHT22;67555;47.660;19.622;2023-02-28T03:23:52;0.40;60.70
78297;DHT22;67555;47.660;19.622;2023-02-28T03:26:23;0.50;60.70
78297;DHT22;67555;47.660;19.622;2023-02-28T03:29:13;0.50;60.60
78297;DHT22;67555;47.660;19.622;2023-02-28T03:31:50;0.50;60.50
78297;DHT22;67555;47.660;19.622;2023-02-28T03:34:54;0.50;60.70
78297;DHT22;67555;47.660;19.622;2023-02-28T03:37:23;0.50;60.60
78297;DHT22;67555;47.660;19.622;2023-02-28T03:40:14;0.50;60.50
78297;DHT22;67555;47.660;19.622;2023-02-28T03:42:46;0.60;60.30
78297;DHT22;67555;47.660;19.622;2023-02-28T03:45:22;0.60;60.40
78297;DHT22;67555;47.660;19.622;2023-02-28T03:50:35;0.60;60.50
78297;DHT22;67555;47.660;19.622;2023-02-28T03:53:18;0.60;60.60
78297;DHT22;67555;47.660;19.622;2023-02-28T03:55:48;0.60;60.50
78297;DHT22;67555;47.660;19.622;2023-02-28T03:58:53;0.70;60.50
78297;DHT22;67555;47.660;19.622;2023-02-28T04:01:38;0.70;60.40
78297;DHT22;67555;47.660;19.622;2023-02-28T04:04:07;0.60;60.50
78297;DHT22;67555;47.660;19.622;2023-02-28T04:06:34;0.60;60.40
78297;DHT22;67555;47.660;19.622;2023-02-28T04:09:01;0.60;60.60
78297;DHT22;67555;47.660;19.622;2023-02-28T04:11:41;0.70;60.50
78297;DHT22;67555;47.660;19.622;2023-02-28T04:14:08;0.70;60.50
78297;DHT22;67555;47.660;19.622;2023-02-28T04:16:38;0.70;60.60
78297;DHT22;67555;47.660;19.622;2023-02-28T04:19:06;0.80;60.60
78297;DHT22;67555;47.660;19.622;2023-02-28T04:21:43;0.80;60.50
78297;DHT22;67555;47.660;19.622;2023-02-28T04:24:11;0.80;60.50
78297;DHT22;67555;47.660;19.622;2023-02-28T04:26:41;0.80;60.50
78297;DHT22;67555;47.660;19.622;2023-02-28T04:29:09;0.80;60.60
78297;DHT22;67555;47.660;19.622;2023-02-28T04:31:35;0.90;60.50
78297;DHT22;67555;47.660;19.622;2023-02-28T04:34:01;1.00;60.50
78297;DHT22;67555;47.660;19.622;2023-02-28T04:36:27;1.00;60.60
78297;DHT22;67555;47.660;19.622;2023-02-28T04:38:53;1.00;60.50
78297;DHT22;67555;47.660;19.622;2023-02-28T04:41:20;1.00;60.60
78297;DHT22;67555;47.660;19.622;2023-02-28T04:43:47;1.00;60.60
78297;DHT22;67555;47.660;19.622;2023-02-28T04:46:13;1.00;60.60
78297;DHT22;67555;47.660;19.622;2023-02-28T04:48:39;1.00;60.50
78297;DHT22;67555;47.660;19.622;2023-02-28T04:51:08;1.00;60.50
78297;DHT22;67555;47.660;19.622;2023-02-28T04:53:34;1.00;60.50
78297;DHT22;67555;47.660;19.622;2023-02-28T04:56:00;1.00;60.50
78297;DHT22;67555;47.660;19.622;2023-02-28T04:58:26;1.00;60.50
78297;DHT22;67555;47.660;19.622;2023-02-28T05:00:54;1.00;60.50
78297;DHT22;67555;47.660;19.622;2023-02-28T05:03:26;1.10;60.50
78297;DHT22;67555;47.660;19.622;2023-02-28T05:05:51;1.00;60.60
78297;DHT22;67555;47.660;19.622;2023-02-28T05:08:17;1.00;60.70
78297;DHT22;67555;47.660;19.622;2023-02-28T05:10:43;1.00;60.90
78297;DHT22;67555;47.660;19.622;2023-02-28T05:13:11;1.00;61.10
78297;DHT22;67555;47.660;19.622;2023-02-28T05:15:38;1.00;61.20
78297;DHT22;67555;47.660;19.622;2023-02-28T05:18:04;1.00;61.50
78297;DHT22;67555;47.660;19.622;2023-02-28T05:20:30;1.00;61.50
78297;DHT22;67555;47.660;19.622;2023-02-28T05:22:57;1.00;61.70
78297;DHT22;67555;47.660;19.622;2023-02-28T05:25:23;1.00;61.50
78297;DHT22;67555;47.660;19.622;2023-02-28T05:27:49;1.10;61.40
78297;DHT22;67555;47.660;19.622;2023-02-28T05:30:16;1.10;61.20
78297;DHT22;67555;47.660;19.622;2023-02-28T05:32:42;1.10;61.30
78297;DHT22;67555;47.660;19.622;2023-02-28T05:35:12;1.10;61.40
78297;DHT22;67555;47.660;19.622;2023-02-28T05:37:39;1.10;61.50
78297;DHT22;67555;47.660;19.622;2023-02-28T05:40:05;1.00;61.50
78297;DHT22;67555;47.660;19.622;2023-02-28T05:42:32;1.10;61.40
78297;DHT22;67555;47.660;19.622;2023-02-28T05:44:58;1.10;61.20
78297;DHT22;67555;47.660;19.622;2023-02-28T05:47:24;1.20;61.00
78297;DHT22;67555;47.660;19.622;2023-02-28T05:49:50;1.30;60.90
78297;DHT22;67555;47.660;19.622;2023-02-28T05:52:16;1.20;60.80
78297;DHT22;67555;47.660;19.622;2023-02-28T05:54:41;1.30;60.80
78297;DHT22;67555;47.660;19.622;2023-02-28T05:57:07;1.20;60.90
78297;DHT22;67555;47.660;19.622;2023-02-28T05:59:33;1.20;61.00
78297;DHT22;67555;47.660;19.622;2023-02-28T06:01:59;1.20;61.10
78297;DHT22;67555;47.660;19.622;2023-02-28T06:04:24;1.10;61.30
78297;DHT22;67555;47.660;19.622;2023-02-28T06:06:50;1.20;61.20
78297;DHT22;67555;47.660;19.622;2023-02-28T06:09:17;1.10;61.30
78297;DHT22;67555;47.660;19.622;2023-02-28T06:11:43;1.20;61.30
78297;DHT22;67555;47.660;19.622;2023-02-28T06:14:19;1.10;61.30
78297;DHT22;67555;47.660;19.622;2023-02-28T06:16:46;1.10;61.40
78297;DHT22;67555;47.660;19.622;2023-02-28T06:19:12;1.10;61.60
78297;DHT22;67555;47.660;19.622;2023-02-28T06:21:38;1.10;61.40
78297;DHT22;67555;47.660;19.622;2023-02-28T06:24:04;1.20;61.30
78297;DHT22;67555;47.660;19.622;2023-02-28T06:26:30;1.40;61.00
78297;DHT22;67555;47.660;19.622;2023-02-28T06:28:56;1.40;60.90
78297;DHT22;67555;47.660;19.622;2023-02-28T06:31:22;1.40;60.80
78297;DHT22;67555;47.660;19.622;2023-02-28T06:33:49;1.40;60.80
78297;DHT22;67555;47.660;19.622;2023-02-28T06:36:16;1.40;60.70
78297;DHT22;67555;47.660;19.622;2023-02-28T06:38:42;1.40;60.50
78297;DHT22;67555;47.660;19.622;2023-02-28T06:41:09;1.40;60.60
78297;DHT22;67555;47.660;19.622;2023-02-28T06:43:39;1.50;60.50
78297;DHT22;67555;47.660;19.622;2023-02-28T06:46:07;1.50;60.40
78297;DHT22;67555;47.660;19.622;2023-02-28T06:48:34;1.60;60.10
78297;DHT22;67555;47.660;19.622;2023-02-28T06:51:18;1.60;59.80
78297;DHT22;67555;47.660;19.622;2023-02-28T06:53:45;1.70;59.80
78297;DHT22;67555;47.660;19.622;2023-02-28T06:56:13;1.70;59.50
78297;DHT22;67555;47.660;19.622;2023-02-28T06:58:40;1.90;59.60
78297;DHT22;67555;47.660;19.622;2023-02-28T07:01:07;2.00;59.30
78297;DHT22;67555;47.660;19.622;2023-02-28T07:03:34;2.20;59.00
78297;DHT22;67555;47.660;19.622;2023-02-28T07:06:00;2.30;58.60
78297;DHT22;67555;47.660;19.622;2023-02-28T07:08:27;2.40;58.20
78297;DHT22;67555;47.660;19.622;2023-02-28T07:10:56;2.40;57.90
78297;DHT22;67555;47.660;19.622;2023-02-28T07:13:23;2.50;57.80
78297;DHT22;67555;47.660;19.622;2023-02-28T07:16:00;2.60;57.30
78297;DHT22;67555;47.660;19.622;2023-02-28T07:18:27;2.70;57.20
78297;DHT22;67555;47.660;19.622;2023-02-28T07:20:53;2.80;56.80
78297;DHT22;67555;47.660;19.622;2023-02-28T07:23:19;2.90;56.40
78297;DHT22;67555;47.660;19.622;2023-02-28T07:25:45;3.00;56.00
78297;DHT22;67555;47.660;19.622;2023-02-28T07:28:12;3.00;55.90
78297;DHT22;67555;47.660;19.622;2023-02-28T07:30:38;3.10;55.50
78297;DHT22;67555;47.660;19.622;2023-02-28T07:33:04;3.10;55.10
78297;DHT22;67555;47.660;19.622;2023-02-28T07:35:30;3.10;55.10
78297;DHT22;67555;47.660;19.622;2023-02-28T07:37:58;3.30;55.00
78297;DHT22;67555;47.660;19.622;2023-02-28T07:40:24;3.30;54.70
78297;DHT22;67555;47.660;19.622;2023-02-28T07:42:50;3.50;54.30
78297;DHT22;67555;47.660;19.622;2023-02-28T07:45:15;3.50;54.10
78297;DHT22;67555;47.660;19.622;2023-02-28T07:47:42;3.60;53.70
78297;DHT22;67555;47.660;19.622;2023-02-28T07:50:11;3.60;53.50
78297;DHT22;67555;47.660;19.622;2023-02-28T07:52:38;3.80;53.60
78297;DHT22;67555;47.660;19.622;2023-02-28T07:55:05;3.90;52.80
78297;DHT22;67555;47.660;19.622;2023-02-28T07:57:31;4.00;52.90
78297;DHT22;67555;47.660;19.622;2023-02-28T07:59:57;4.10;52.70
78297;DHT22;67555;47.660;19.622;2023-02-28T08:02:23;4.10;52.60
78297;DHT22;67555;47.660;19.622;2023-02-28T08:04:49;4.10;52.30
78297;DHT22;67555;47.660;19.622;2023-02-28T08:07:15;4.20;52.50
78297;DHT22;67555;47.660;19.622;2023-02-28T08:09:42;4.40;52.30
78297;DHT22;67555;47.660;19.622;2023-02-28T08:12:09;4.50;51.70
78297;DHT22;67555;47.660;19.622;2023-02-28T08:14:35;4.60;51.50
78297;DHT22;67555;47.660;19.622;2023-02-28T08:17:01;4.60;51.20
78297;DHT22;67555;47.660;19.622;2023-02-28T08:19:27;4.70;50.90
78297;DHT22;67555;47.660;19.622;2023-02-28T08:21:53;4.50;50.10
78297;DHT22;67555;47.660;19.622;2023-02-28T08:24:19;4.50;50.40
78297;DHT22;67555;47.660;19.622;2023-02-28T08:26:45;4.40;50.20
78297;DHT22;67555;47.660;19.622;2023-02-28T08:29:11;4.50;50.30
78297;DHT22;67555;47.660;19.622;2023-02-28T08:31:36;4.50;50.20
78297;DHT22;67555;47.660;19.622;2023-02-28T08:34:10;4.40;49.70
78297;DHT22;67555;47.660;19.622;2023-02-28T08:36:36;4.40;50.00
78297;DHT22;67555;47.660;19.622;2023-02-28T08:39:02;4.50;49.50
78297;DHT22;67555;47.660;19.622;2023-02-28T08:41:28;4.50;49.30
78297;DHT22;67555;47.660;19.622;2023-02-28T08:43:54;4.50;49.20
78297;DHT22;67555;47.660;19.622;2023-02-28T08:46:20;4.60;49.20
78297;DHT22;67555;47.660;19.622;2023-02-28T08:48:46;4.70;49.20
78297;DHT22;67555;47.660;19.622;2023-02-28T08:51:14;4.70;48.70
78297;DHT22;67555;47.660;19.622;2023-02-28T08:53:46;4.70;48.40
78297;DHT22;67555;47.660;19.622;2023-02-28T08:56:15;4.70;48.30
78297;DHT22;67555;47.660;19.622;2023-02-28T08:58:42;4.90;48.50
78297;DHT22;67555;47.660;19.622;2023-02-28T09:01:19;5.00;48.00
78297;DHT22;67555;47.660;19.622;2023-02-28T09:03:46;5.00;47.40
78297;DHT22;67555;47.660;19.622;2023-02-28T09:06:14;4.90;47.20
78297;DHT22;67555;47.660;19.622;2023-02-28T09:08:40;5.00;47.30
78297;DHT22;67555;47.660;19.622;2023-02-28T09:11:07;5.00;47.60
78297;DHT22;67555;47.660;19.622;2023-02-28T09:13:33;5.30;47.50
78297;DHT22;67555;47.660;19.622;2023-02-28T09:16:00;5.50;47.00
78297;DHT22;67555;47.660;19.622;2023-02-28T09:18:27;5.50;46.50
78297;DHT22;67555;47.660;19.622;2023-02-28T09:20:53;5.50;46.70
78297;DHT22;67555;47.660;19.622;2023-02-28T09:23:19;5.60;46.70
78297;DHT22;67555;47.660;19.622;2023-02-28T09:25:50;5.70;46.60
78297;DHT22;67555;47.660;19.622;2023-02-28T09:28:17;6.10;46.60
78297;DHT22;67555;47.660;19.622;2023-02-28T09:30:51;6.50;46.20
78297;DHT22;67555;47.660;19.622;2023-02-28T09:33:17;6.40;45.40
78297;DHT22;67555;47.660;19.622;2023-02-28T09:35:46;6.30;45.60
78297;DHT22;67555;47.660;19.622;2023-02-28T09:38:12;6.40;45.80
78297;DHT22;67555;47.660;19.622;2023-02-28T09:40:58;6.60;45.50
78297;DHT22;67555;47.660;19.622;2023-02-28T09:43:34;6.50;45.40
78297;DHT22;67555;47.660;19.622;2023-02-28T09:46:08;6.40;45.00
78297;DHT22;67555;47.660;19.622;2023-02-28T09:48:39;6.30;45.20
78297;DHT22;67555;47.660;19.622;2023-02-28T09:54:15;6.90;45.10
78297;DHT22;67555;47.660;19.622;2023-02-28T09:56:53;7.20;44.80
78297;DHT22;67555;47.660;19.622;2023-02-28T10:04:54;8.30;44.00
78297;DHT22;67555;47.660;19.622;2023-02-28T10:09:53;8.80;43.60
78297;DHT22;67555;47.660;19.622;2023-02-28T10:12:20;9.00;43.30
78297;DHT22;67555;47.660;19.622;2023-02-28T10:14:49;9.00;43.00
78297;DHT22;67555;47.660;19.622;2023-02-28T10:17:26;9.10;43.00
78297;DHT22;67555;47.660;19.622;2023-02-28T10:20:00;9.00;42.30
78297;DHT22;67555;47.660;19.622;2023-02-28T10:22:52;8.80;42.50
78297;DHT22;67555;47.660;19.622;2023-02-28T10:25:23;8.60;42.50
78297;DHT22;67555;47.660;19.622;2023-02-28T10:27:52;8.30;43.00
78297;DHT22;67555;47.660;19.622;2023-02-28T10:30:19;8.10;42.80
78297;DHT22;67555;47.660;19.622;2023-02-28T10:32:51;7.70;43.20
78297;DHT22;67555;47.660;19.622;2023-02-28T10:35:21;7.50;43.60
78297;DHT22;67555;47.660;19.622;2023-02-28T10:37:56;7.50;44.10
78297;DHT22;67555;47.660;19.622;2023-02-28T10:43:05;8.10;43.70
78297;DHT22;67555;47.660;19.622;2023-02-28T10:45:33;8.30;43.50
78297;DHT22;67555;47.660;19.622;2023-02-28T10:53:30;8.90;43.40
78297;DHT22;67555;47.660;19.622;2023-02-28T11:04:01;8.50;42.90
78297;DHT22;67555;47.660;19.622;2023-02-28T11:06:30;8.40;42.60
78297;DHT22;67555;47.660;19.622;2023-02-28T11:09:27;8.00;42.60
78297;DHT22;67555;47.660;19.622;2023-02-28T11:11:55;8.00;43.20
78297;DHT22;67555;47.660;19.622;2023-02-28T11:14:47;8.30;43.20
78297;DHT22;67555;47.660;19.622;2023-02-28T11:17:26;8.50;43.10
78297;DHT22;67555;47.660;19.622;2023-02-28T11:19:55;8.80;42.90
78297;DHT22;67555;47.660;19.622;2023-02-28T11:22:26;9.20;42.50
78297;DHT22;67555;47.660;19.622;2023-02-28T11:24:56;9.40;42.20
78297;DHT22;67555;47.660;19.622;2023-02-28T11:27:50;9.50;41.40
78297;DHT22;67555;47.660;19.622;2023-02-28T11:30:27;9.20;41.70
78297;DHT22;67555;47.660;19.622;2023-02-28T11:32:53;9.10;42.20
78297;DHT22;67555;47.660;19.622;2023-02-28T11:38:00;9.30;42.20
78297;DHT22;67555;47.660;19.622;2023-02-28T11:48:22;9.50;42.40
78297;DHT22;67555;47.660;19.622;2023-02-28T11:50:57;9.60;42.30
78297;DHT22;67555;47.660;19.622;2023-02-28T11:54:04;9.70;42.30
78297;DHT22;67555;47.660;19.622;2023-02-28T11:56:38;9.90;42.30
78297;DHT22;67555;47.660;19.622;2023-02-28T12:07:53;10.30;41.90
78297;DHT22;67555;47.660;19.622;2023-02-28T12:13:05;10.70;41.50
78297;DHT22;67555;47.660;19.622;2023-02-28T12:24:24;11.00;41.10
78297;DHT22;67555;47.660;19.622;2023-02-28T12:26:51;11.00;41.20
78297;DHT22;67555;47.660;19.622;2023-02-28T12:29:34;10.90;41.30
78297;DHT22;67555;47.660;19.622;2023-02-28T12:32:21;10.80;41.40
78297;DHT22;67555;47.660;19.622;2023-02-28T12:34:56;10.80;41.20
78297;DHT22;67555;47.660;19.622;2023-02-28T12:37:56;10.50;41.20
78297;DHT22;67555;47.660;19.622;2023-02-28T12:40:27;10.40;41.50
78297;DHT22;67555;47.660;19.622;2023-02-28T12:43:02;10.40;41.50
78297;DHT22;67555;47.660;19.622;2023-02-28T12:45:46;10.50;41.40
78297;DHT22;67555;47.660;19.622;2023-02-28T12:48:32;10.50;41.30
78297;DHT22;67555;47.660;19.622;2023-02-28T12:51:03;10.50;41.20
78297;DHT22;67555;47.660;19.622;2023-02-28T12:53:40;10.50;41.20
78297;DHT22;67555;47.660;19.622;2023-02-28T12:56:11;10.40;41.10
78297;DHT22;67555;47.660;19.622;2023-02-28T13:01:29;10.50;41.20
78297;DHT22;67555;47.660;19.622;2023-02-28T13:09:14;10.70;41.00
78297;DHT22;67555;47.660;19.622;2023-02-28T13:11:42;10.70;40.90
78297;DHT22;67555;47.660;19.622;2023-02-28T13:14:37;10.80;40.80
78297;DHT22;67555;47.660;19.622;2023-02-28T13:19:44;11.10;40.60
78297;DHT22;67555;47.660;19.622;2023-02-28T13:22:45;11.30;40.30
78297;DHT22;67555;47.660;19.622;2023-02-28T13:28:11;11.50;40.30
78297;DHT22;67555;47.660;19.622;2023-02-28T13:33:23;11.80;40.20
78297;DHT22;67555;47.660;19.622;2023-02-28T13:38:35;12.20;39.80
78297;DHT22;67555;47.660;19.622;2023-02-28T13:44:06;12.30;39.40
78297;DHT22;67555;47.660;19.622;2023-02-28T13:46:34;12.10;39.40
78297;DHT22;67555;47.660;19.622;2023-02-28T13:51:47;11.90;39.50
78297;DHT22;67555;47.660;19.622;2023-02-28T13:57:11;11.60;39.60
78297;DHT22;67555;47.660;19.622;2023-02-28T14:02:45;11.40;39.80
78297;DHT22;67555;47.660;19.622;2023-02-28T14:05:21;11.30;39.90
78297;DHT22;67555;47.660;19.622;2023-02-28T14:07:56;11.30;39.90
78297;DHT22;67555;47.660;19.622;2023-02-28T14:10:28;11.20;39.90
78297;DHT22;67555;47.660;19.622;2023-02-28T14:13:37;11.10;40.00
78297;DHT22;67555;47.660;19.622;2023-02-28T14:16:08;10.90;40.10
78297;DHT22;67555;47.660;19.622;2023-02-28T14:18:40;10.70;40.50
78297;DHT22;67555;47.660;19.622;2023-02-28T14:24:24;10.30;41.10
78297;DHT22;67555;47.660;19.622;2023-02-28T14:27:32;10.30;41.20
78297;DHT22;67555;47.660;19.622;2023-02-28T14:33:14;10.20;41.40
78297;DHT22;67555;47.660;19.622;2023-02-28T14:38:38;10.50;41.10
78297;DHT22;67555;47.660;19.622;2023-02-28T14:41:16;10.60;40.90
78297;DHT22;67555;47.660;19.622;2023-02-28T14:43:55;10.60;41.00
78297;DHT22;67555;47.660;19.622;2023-02-28T14:46:25;10.50;41.00
78297;DHT22;67555;47.660;19.622;2023-02-28T14:48:52;10.40;41.00
78297;DHT22;67555;47.660;19.622;2023-02-28T14:51:20;10.30;41.00
78297;DHT22;67555;47.660;19.622;2023-02-28T14:53:48;10.30;41.20
78297;DHT22;67555;47.660;19.622;2023-02-28T14:56:38;10.30;41.20
78297;DHT22;67555;47.660;19.622;2023-02-28T14:59:05;10.20;41.30
78297;DHT22;67555;47.660;19.622;2023-02-28T15:01:46;10.00;41.80
78297;DHT22;67555;47.660;19.622;2023-02-28T15:04:24;9.80;42.00
78297;DHT22;67555;47.660;19.622;2023-02-28T15:07:10;9.70;42.20
78297;DHT22;67555;47.660;19.622;2023-02-28T15:09:36;9.70;42.30
78297;DHT22;67555;47.660;19.622;2023-02-28T15:12:02;9.60;42.40
78297;DHT22;67555;47.660;19.622;2023-02-28T15:14:27;9.60;42.60
78297;DHT22;67555;47.660;19.622;2023-02-28T15:17:01;9.60;42.80
78297;DHT22;67555;47.660;19.622;2023-02-28T15:19:30;9.50;42.90
78297;DHT22;67555;47.660;19.622;2023-02-28T15:22:04;9.40;43.00
78297;DHT22;67555;47.660;19.622;2023-02-28T15:24:51;9.40;43.20
78297;DHT22;67555;47.660;19.622;2023-02-28T15:27:27;9.30;43.30
78297;DHT22;67555;47.660;19.622;2023-02-28T15:29:57;9.20;43.40
78297;DHT22;67555;47.660;19.622;2023-02-28T15:32:28;9.20;43.50
78297;DHT22;67555;47.660;19.622;2023-02-28T15:34:55;9.10;43.60
78297;DHT22;67555;47.660;19.622;2023-02-28T15:39:58;9.00;43.80
78297;DHT22;67555;47.660;19.622;2023-02-28T15:42:28;8.90;43.90
78297;DHT22;67555;47.660;19.622;2023-02-28T15:44:54;8.80;44.10
78297;DHT22;67555;47.660;19.622;2023-02-28T15:47:25;8.70;44.30
78297;DHT22;67555;47.660;19.622;2023-02-28T15:49:58;8.70;44.50
78297;DHT22;67555;47.660;19.622;2023-02-28T15:52:28;8.60;44.50
78297;DHT22;67555;47.660;19.622;2023-02-28T15:54:57;8.60;44.60
78297;DHT22;67555;47.660;19.622;2023-02-28T15:57:28;8.60;44.70
78297;DHT22;67555;47.660;19.622;2023-02-28T15:59:57;8.60;44.70
78297;DHT22;67555;47.660;19.622;2023-02-28T16:02:33;8.60;44.80
78297;DHT22;67555;47.660;19.622;2023-02-28T16:05:02;8.60;44.80
78297;DHT22;67555;47.660;19.622;2023-02-28T16:07:28;8.60;44.90
78297;DHT22;67555;47.660;19.622;2023-02-28T16:09:54;8.50;44.90
78297;DHT22;67555;47.660;19.622;2023-02-28T16:12:28;8.50;45.00
78297;DHT22;67555;47.660;19.622;2023-02-28T16:14:57;8.50;45.10
78297;DHT22;67555;47.660;19.622;2023-02-28T16:17:33;8.40;45.40
78297;DHT22;67555;47.660;19.622;2023-02-28T16:19:59;8.30;45.50
78297;DHT22;67555;47.660;19.622;2023-02-28T16:22:25;8.30;45.60
78297;DHT22;67555;47.660;19.622;2023-02-28T16:24:51;8.20;45.70
78297;DHT22;67555;47.660;19.622;2023-02-28T16:27:23;8.00;46.00
78297;DHT22;67555;47.660;19.622;2023-02-28T16:29:50;8.00;46.30
78297;DHT22;67555;47.660;19.622;2023-02-28T16:32:16;7.80;46.40
78297;DHT22;67555;47.660;19.622;2023-02-28T16:34:43;7.80;46.50
78297;DHT22;67555;47.660;19.622;2023-02-28T16:37:15;7.80;46.60
78297;DHT22;67555;47.660;19.622;2023-02-28T16:39:42;7.70;46.70
78297;DHT22;67555;47.660;19.622;2023-02-28T16:42:20;7.70;46.80
78297;DHT22;67555;47.660;19.622;2023-02-28T16:44:48;7.60;46.90
78297;DHT22;67555;47.660;19.622;2023-02-28T16:47:14;7.60;47.00
78297;DHT22;67555;47.660;19.622;2023-02-28T16:49:40;7.50;47.00
78297;DHT22;67555;47.660;19.622;2023-02-28T16:52:11;7.50;47.10
78297;DHT22;67555;47.660;19.622;2023-02-28T16:54:40;7.50;47.20
78297;DHT22;67555;47.660;19.622;2023-02-28T16:57:18;7.50;47.20
78297;DHT22;67555;47.660;19.622;2023-02-28T16:59:47;7.50;47.30
78297;DHT22;67555;47.660;19.622;2023-02-28T17:02:14;7.50;47.30
78297;DHT22;67555;47.660;19.622;2023-02-28T17:04:42;7.50;47.50
78297;DHT22;67555;47.660;19.622;2023-02-28T17:07:11;7.50;47.50
78297;DHT22;67555;47.660;19.622;2023-02-28T17:09:38;7.40;47.60
78297;DHT22;67555;47.660;19.622;2023-02-28T17:12:04;7.40;47.70
78297;DHT22;67555;47.660;19.622;2023-02-28T17:14:29;7.40;47.90
78297;DHT22;67555;47.660;19.622;2023-02-28T17:16:55;7.40;47.90
78297;DHT22;67555;47.660;19.622;2023-02-28T17:19:21;7.50;47.90
78297;DHT22;67555;47.660;19.622;2023-02-28T17:21:47;7.50;47.90
78297;DHT22;67555;47.660;19.622;2023-02-28T17:24:13;7.50;47.90
78297;DHT22;67555;47.660;19.622;2023-02-28T17:26:40;7.50;48.00
78297;DHT22;67555;47.660;19.622;2023-02-28T17:29:18;7.50;48.20
78297;DHT22;67555;47.660;19.622;2023-02-28T17:31:44;7.50;48.20
78297;DHT22;67555;47.660;19.622;2023-02-28T17:34:10;7.50;48.30
78297;DHT22;67555;47.660;19.622;2023-02-28T17:36:37;7.50;48.50
78297;DHT22;67555;47.660;19.622;2023-02-28T17:39:04;7.50;48.40
78297;DHT22;67555;47.660;19.622;2023-02-28T17:41:34;7.60;48.40
78297;DHT22;67555;47.660;19.622;2023-02-28T17:44:00;7.60;48.30
78297;DHT22;67555;47.660;19.622;2023-02-28T17:46:26;7.60;48.40
78297;DHT22;67555;47.660;19.622;2023-02-28T17:48:54;7.60;48.40
78297;DHT22;67555;47.660;19.622;2023-02-28T17:51:22;7.60;48.60
78297;DHT22;67555;47.660;19.622;2023-02-28T17:53:48;7.70;48.60
78297;DHT22;67555;47.660;19.622;2023-02-28T17:56:21;7.70;48.60
78297;DHT22;67555;47.660;19.622;2023-02-28T17:58:49;7.80;48.70
78297;DHT22;67555;47.660;19.622;2023-02-28T18:01:15;7.70;48.80